Time;durP1;ratioP1;P1;durP2;ratioP2;P2;SDS_P1;SDS_P2;PMS_P1;PMS_P2;Temp;Humidity;BMP_temperature;BMP_pressure;BME280_temperature;BME280_humidity;BME280_pressure;Samples;Min_cycle;Max_cycle;Signal;HPM_P1;HPM_P2
2022/01/03 00:01:52;;;;;;;8.27;2.87;;;9.50;99.90;;;;;;4826995;29;20041;-95
2022/01/03 00:04:24;;;;;;;10.23;3.67;;;8.10;99.90;;;;;;4827318;29;20046;-94
2022/01/03 00:06:57;;;;;;;14.83;3.37;;;8.20;99.90;;;;;;4826807;29;20057;-95
2022/01/03 00:09:25;;;;;;;10.10;3.10;;;8.40;99.90;;;;;;4826590;29;20490;-96
2022/01/03 00:12:10;;;;;;;12.40;3.17;;;9.30;99.90;;;;;;4850256;23;20068;-94
2022/01/03 00:15:15;;;;;;;14.97;3.40;;;7.90;99.90;;;;;;4879460;29;20060;-94
2022/01/03 00:17:43;;;;;;;;;;;8.60;99.90;;;;;;4807013;29;20089;-95
2022/01/03 00:20:15;;;;;;;15.83;3.13;;;7.90;99.90;;;;;;4808705;29;19982;-92
2022/01/03 00:22:49;;;;;;;14.60;2.83;;;8.40;99.90;;;;;;4819884;29;20134;-96
2022/01/03 00:25:17;;;;;;;15.60;3.13;;;8.50;99.90;;;;;;4817656;29;20046;-96
2022/01/03 00:27:54;;;;;;;12.27;4.67;;;8.70;99.90;;;;;;4808666;29;20053;-95
2022/01/03 00:30:21;;;;;;;17.33;4.43;;;9.20;99.90;;;;;;4829233;23;20412;-93
2022/01/03 00:32:51;;;;;;;13.50;3.47;;;9.30;99.90;;;;;;4892168;23;20048;-95
2022/01/03 00:35:18;;;;;;;22.77;8.40;;;8.70;99.90;;;;;;4885483;29;20194;-95
2022/01/03 00:37:45;;;;;;;20.07;8.33;;;8.90;99.90;;;;;;4885536;29;20092;-96
2022/01/03 00:40:16;;;;;;;18.30;4.70;;;9.10;99.90;;;;;;4885684;29;20044;-95
2022/01/03 00:42:41;;;;;;;20.50;7.37;;;9.30;99.90;;;;;;4885360;29;20052;-95
2022/01/03 00:45:11;;;;;;;15.70;5.00;;;9.80;99.90;;;;;;4884993;29;20130;-95
2022/01/03 00:47:40;;;;;;;24.17;7.73;;;9.80;99.90;;;;;;4885822;29;20044;-94
2022/01/03 00:50:13;;;;;;;27.13;11.57;;;9.70;99.90;;;;;;4885169;29;20428;-94
2022/01/03 00:52:41;;;;;;;21.70;8.07;;;9.60;99.90;;;;;;4884849;29;20494;-94
2022/01/03 00:55:11;;;;;;;21.70;7.33;;;9.80;99.90;;;;;;4885367;29;20040;-93
2022/01/03 00:58:17;;;;;;;19.23;6.00;;;8.90;99.90;;;;;;4884248;29;20083;-95
2022/01/03 01:00:50;;;;;;;25.97;5.60;;;9.10;99.90;;;;;;4884763;29;20116;-95
2022/01/03 01:03:41;;;;;;;17.02;3.03;;;8.90;99.90;;;;;;4885224;29;20041;-93
2022/01/03 01:06:17;;;;;;;21.63;3.60;;;9.00;99.90;;;;;;4884480;29;20053;-93
2022/01/03 01:08:47;;;;;;;16.07;3.73;;;9.00;99.90;;;;;;4884721;29;20167;-94
2022/01/03 01:11:23;;;;;;;15.77;2.80;;;9.30;99.90;;;;;;4885466;29;20084;-93
2022/01/03 01:13:53;;;;;;;21.27;3.80;;;9.30;99.90;;;;;;4898115;29;20120;-95
2022/01/03 01:16:22;;;;;;;15.70;3.43;;;8.90;99.90;;;;;;4906489;29;20104;-94
2022/01/03 01:19:28;;;;;;;22.10;3.30;;;9.30;99.90;;;;;;4893971;23;20061;-94
2022/01/03 01:21:53;;;;;;;14.67;3.37;;;9.30;99.90;;;;;;4884445;29;20060;-96
2022/01/03 01:24:24;;;;;;;15.20;3.33;;;8.90;99.90;;;;;;4884468;29;20053;-94
2022/01/03 01:29:23;;;;;;;16.90;3.67;;;9.30;99.90;;;;;;4880500;29;20060;-94
2022/01/03 01:32:01;;;;;;;16.90;3.83;;;9.00;99.90;;;;;;4865760;29;20052;-93
2022/01/03 01:34:29;;;;;;;21.27;4.37;;;9.10;99.90;;;;;;4865442;29;20181;-92
2022/01/03 01:36:59;;;;;;;17.13;3.60;;;9.20;99.90;;;;;;4865350;29;20095;-93
2022/01/03 01:39:28;;;;;;;17.50;3.50;;;10.20;99.90;;;;;;4882647;23;20080;-95
2022/01/03 01:42:00;;;;;;;18.17;3.37;;;9.20;99.90;;;;;;4882494;29;20497;-94
2022/01/03 01:44:33;;;;;;;18.43;3.60;;;9.90;99.90;;;;;;4883671;29;20057;-94
2022/01/03 01:47:03;;;;;;;14.77;2.80;;;10.10;99.90;;;;;;4883276;29;20052;-94
2022/01/03 01:49:57;;;;;;;17.13;3.30;;;9.30;99.90;;;;;;4883971;29;20052;-95
2022/01/03 01:52:36;;;;;;;15.90;3.30;;;9.40;99.90;;;;;;4884416;29;20076;-94
2022/01/03 01:55:06;;;;;;;17.47;3.23;;;10.30;99.90;;;;;;4882844;29;20088;-93
2022/01/03 01:57:55;;;;;;;17.93;3.30;;;9.30;99.90;;;;;;4884233;29;20048;-96
2022/01/03 02:00:34;;;;;;;18.00;3.20;;;9.60;99.90;;;;;;4884273;29;20059;-93
2022/01/03 02:03:24;;;;;;;16.83;3.17;;;9.10;99.90;;;;;;4882576;29;20049;-94
2022/01/03 02:06:40;;;;;;;16.00;3.67;;;8.70;99.90;;;;;;4883170;29;20101;-94
2022/01/03 02:09:08;;;;;;;17.03;2.83;;;9.30;99.90;;;;;;4883313;29;20052;-95
2022/01/03 02:12:01;;;;;;;14.70;3.37;;;9.50;99.90;;;;;;4883199;29;20120;-94
2022/01/03 02:14:37;;;;;;;15.60;3.77;;;9.30;99.90;;;;;;4883740;29;20100;-94
2022/01/03 02:17:05;;;;;;;15.37;2.80;;;9.70;99.90;;;;;;4900253;29;20029;-94
2022/01/03 02:19:39;;;;;;;12.67;2.93;;;10.30;99.90;;;;;;4889280;29;20056;-94
2022/01/03 02:25:35;;;;;;;20.40;3.40;;;9.50;99.90;;;;;;4883857;29;20057;-94
2022/01/03 02:28:07;;;;;;;16.93;3.40;;;8.90;99.90;;;;;;4883480;29;20044;-93
2022/01/03 02:30:39;;;;;;;14.97;3.23;;;9.00;99.90;;;;;;4882668;29;20084;-94
2022/01/03 02:33:10;;;;;;;20.57;3.13;;;9.10;99.90;;;;;;4882769;29;20084;-93
2022/01/03 02:35:44;;;;;;;14.60;3.30;;;9.10;99.90;;;;;;4883607;29;20084;-94
2022/01/03 02:38:10;;;;;;;12.70;2.78;;;9.20;99.90;;;;;;4883205;29;20523;-95
2022/01/03 02:40:43;;;;;;;14.43;3.13;;;9.90;99.90;;;;;;4883259;29;20049;-94
2022/01/03 02:43:11;;;;;;;18.03;3.80;;;9.40;99.90;;;;;;4882787;29;20063;-94
2022/01/03 02:45:40;;;;;;;17.23;3.10;;;8.40;99.90;;;;;;4900487;29;20053;-93
2022/01/03 02:48:14;;;;;;;19.07;3.47;;;9.90;99.90;;;;;;4901467;29;20584;-93
2022/01/03 02:50:43;;;;;;;16.73;3.13;;;9.50;99.90;;;;;;4882308;29;20045;-94
2022/01/03 02:53:14;;;;;;;20.00;3.63;;;9.10;99.90;;;;;;4882569;29;20057;-93
2022/01/03 02:55:43;;;;;;;17.07;3.50;;;9.10;99.90;;;;;;4881931;29;20485;-93
2022/01/03 02:58:14;;;;;;;18.10;3.27;;;9.30;99.90;;;;;;4882455;29;20052;-93
2022/01/03 03:00:48;;;;;;;15.50;3.33;;;9.00;99.90;;;;;;4881804;29;20052;-93
2022/01/03 03:03:15;;;;;;;16.52;3.25;;;9.40;99.90;;;;;;4882542;29;20044;-92
2022/01/03 03:05:41;;;;;;;15.03;3.53;;;9.00;99.90;;;;;;4880861;29;20393;-93
2022/01/03 03:08:07;;;;;;;18.30;3.27;;;8.90;99.90;;;;;;4881245;29;20404;-93
2022/01/03 03:10:41;;;;;;;15.73;3.30;;;9.60;99.90;;;;;;4883168;29;20125;-93
2022/01/03 03:13:07;;;;;;;15.27;3.17;;;8.80;99.90;;;;;;4881933;29;20045;-94
2022/01/03 03:15:42;;;;;;;15.97;2.97;;;9.00;99.90;;;;;;4882572;29;20137;-94
2022/01/03 03:18:10;;;;;;;19.17;3.20;;;8.80;99.90;;;;;;4881928;29;20136;-94
2022/01/03 03:20:43;;;;;;;17.40;2.97;;;8.80;99.90;;;;;;4882742;29;20365;-91
2022/01/03 03:23:12;;;;;;;21.30;3.15;;;8.80;99.90;;;;;;4882721;29;20056;-93
2022/01/03 03:25:38;;;;;;;17.20;3.60;;;9.80;99.90;;;;;;4881461;29;20045;-93
2022/01/03 03:28:12;;;;;;;20.87;3.23;;;9.10;99.90;;;;;;4881734;29;20263;-93
2022/01/03 03:30:41;;;;;;;15.63;3.63;;;8.80;99.90;;;;;;4882130;29;20041;-94
2022/01/03 03:33:14;;;;;;;17.40;3.77;;;8.90;99.90;;;;;;4881849;29;20055;-93
2022/01/03 03:35:41;;;;;;;19.80;3.27;;;8.80;99.90;;;;;;4882187;29;20048;-94
2022/01/03 03:38:10;;;;;;;20.53;3.80;;;9.40;99.90;;;;;;4882051;29;20068;-94
2022/01/03 03:40:40;;;;;;;16.47;3.40;;;9.20;99.90;;;;;;4881828;29;20052;-93
2022/01/03 03:43:16;;;;;;;20.03;3.60;;;7.90;99.90;;;;;;4882251;29;20056;-94
2022/01/03 03:45:42;;;;;;;20.00;4.27;;;8.70;99.90;;;;;;4881605;29;20581;-93
2022/01/03 03:48:13;;;;;;;16.17;3.97;;;9.00;99.90;;;;;;4880913;29;20044;-95
2022/01/03 03:50:46;;;;;;;21.80;3.83;;;8.70;99.90;;;;;;4882057;29;20049;-94
2022/01/03 03:53:16;;;;;;;17.58;3.25;;;9.40;99.90;;;;;;4881865;29;20481;-94
2022/01/03 03:55:44;;;;;;;20.27;3.40;;;8.70;99.90;;;;;;4881159;29;20045;-94
2022/01/03 03:58:16;;;;;;;22.27;4.13;;;8.70;99.90;;;;;;4881881;29;20040;-93
2022/01/03 04:00:48;;;;;;;19.80;3.57;;;9.40;99.90;;;;;;4881310;29;20560;-93
2022/01/03 04:03:16;;;;;;;19.93;3.60;;;8.70;99.90;;;;;;4882141;29;20051;-91
2022/01/03 04:05:44;;;;;;;13.57;3.63;;;8.80;99.90;;;;;;4882075;29;20047;-93
2022/01/03 04:08:48;;;;;;;21.77;3.63;;;8.80;99.90;;;;;;4901579;29;20040;-92
2022/01/03 04:11:17;;;;;;;15.17;3.33;;;9.10;99.90;;;;;;4882249;29;20528;-93
2022/01/03 04:13:49;;;;;;;21.27;3.73;;;9.90;99.90;;;;;;4881176;29;20139;-93
2022/01/03 04:16:20;;;;;;;21.63;3.60;;;8.60;99.90;;;;;;4889900;29;20052;-92
2022/01/03 04:18:49;;;;;;;21.30;3.87;;;8.70;99.90;;;;;;4903270;29;20045;-92
2022/01/03 04:21:21;;;;;;;19.47;3.27;;;9.00;99.90;;;;;;4888227;29;20071;-92
2022/01/03 04:23:52;;;;;;;17.93;3.80;;;8.80;99.90;;;;;;4881561;29;20397;-94
2022/01/03 04:26:21;;;;;;;19.70;3.70;;;9.80;99.90;;;;;;4881665;29;20045;-94
2022/01/03 04:28:50;;;;;;;17.23;3.03;;;8.80;99.90;;;;;;4880394;29;20085;-93
2022/01/03 04:31:25;;;;;;;16.63;3.00;;;7.90;99.90;;;;;;4881439;29;20040;-93
2022/01/03 04:33:51;;;;;;;21.17;3.43;;;8.80;99.90;;;;;;4881229;29;20053;-94
2022/01/03 04:36:27;;;;;;;18.20;3.53;;;9.20;99.90;;;;;;4881034;29;20272;-93
2022/01/03 04:38:53;;;;;;;20.87;3.90;;;8.70;99.90;;;;;;4880826;29;20057;-92
2022/01/03 04:41:23;;;;;;;15.03;3.10;;;9.00;99.90;;;;;;4880693;29;20060;-90
2022/01/03 04:43:54;;;;;;;15.07;3.50;;;10.00;99.90;;;;;;4880608;29;20044;-93
2022/01/03 04:46:27;;;;;;;20.70;3.60;;;8.90;99.90;;;;;;4897503;29;20060;-93
2022/01/03 04:48:56;;;;;;;19.35;3.65;;;9.10;99.90;;;;;;4880841;29;20488;-93
2022/01/03 04:51:28;;;;;;;17.70;3.43;;;9.00;99.90;;;;;;4880688;29;20154;-94
2022/01/03 04:54:00;;;;;;;20.93;4.03;;;9.10;99.90;;;;;;4881073;29;20048;-93
2022/01/03 04:56:28;;;;;;;21.10;3.63;;;8.90;99.90;;;;;;4881599;29;20045;-94
2022/01/03 04:59:00;;;;;;;25.67;3.83;;;8.90;99.90;;;;;;4880730;29;20041;-93
2022/01/03 05:01:32;;;;;;;18.80;3.93;;;9.60;99.90;;;;;;4879926;29;20040;-93
2022/01/03 05:06:29;;;;;;;23.40;4.23;;;9.10;99.90;;;;;;4864750;23;20118;-92
2022/01/03 05:09:04;;;;;;;23.50;3.90;;;8.90;99.90;;;;;;4843895;29;20081;-94
2022/01/03 05:11:33;;;;;;;20.33;3.83;;;8.30;99.90;;;;;;4843420;29;20057;-94
2022/01/03 05:14:03;;;;;;;20.73;4.23;;;9.00;99.90;;;;;;4843958;29;20072;-93
2022/01/03 05:16:36;;;;;;;25.63;4.83;;;9.30;99.90;;;;;;4843969;29;20073;-96
2022/01/03 05:19:04;;;;;;;22.47;3.80;;;9.90;99.90;;;;;;4846545;29;20117;-93
2022/01/03 05:21:32;;;;;;;22.20;4.07;;;8.90;99.90;;;;;;4847140;29;20049;-92
2022/01/03 05:25:01;;;;;;;20.07;3.70;;;9.10;99.90;;;;;;4847466;29;20140;-94
2022/01/03 05:27:40;;;;;;;22.47;4.77;;;9.20;99.90;;;;;;4846924;29;20178;-92
2022/01/03 05:30:07;;;;;;;24.03;4.33;;;10.10;99.90;;;;;;4847337;29;20044;-93
2022/01/03 05:32:39;;;;;;;21.10;3.67;;;9.10;99.90;;;;;;4846782;29;20400;-93
2022/01/03 05:35:08;;;;;;;26.73;4.47;;;10.10;99.90;;;;;;4846472;29;20042;-92
2022/01/03 05:37:39;;;;;;;18.93;3.73;;;9.10;99.90;;;;;;4846983;29;20053;-93
2022/01/03 05:40:11;;;;;;;20.70;4.27;;;10.40;99.90;;;;;;4845864;29;20045;-93
2022/01/03 05:42:41;;;;;;;22.93;4.07;;;9.10;99.90;;;;;;4846901;29;20468;-93
2022/01/03 05:45:10;;;;;;;18.30;3.93;;;10.40;99.90;;;;;;4863430;29;20057;-94
2022/01/03 05:47:45;;;;;;;22.47;4.23;;;10.20;99.90;;;;;;4850447;29;20066;-92
2022/01/03 05:50:15;;;;;;;23.20;3.80;;;9.20;99.90;;;;;;4869288;29;20049;-93
2022/01/03 05:52:44;;;;;;;19.60;3.90;;;8.60;99.90;;;;;;4855364;29;20049;-94
2022/01/03 05:55:13;;;;;;;21.43;3.73;;;9.70;99.90;;;;;;4846850;29;20045;-94
2022/01/03 05:57:44;;;;;;;19.97;3.87;;;9.30;99.90;;;;;;4849161;29;20117;-93
2022/01/03 06:00:16;;;;;;;28.47;4.93;;;9.80;99.90;;;;;;4870111;29;20049;-94
2022/01/03 06:02:45;;;;;;;19.80;3.73;;;9.00;99.90;;;;;;4850579;29;20057;-93
2022/01/03 06:05:32;;;;;;;19.27;4.00;;;9.90;99.90;;;;;;4844820;29;20060;-94
2022/01/03 06:08:24;;;;;;;19.50;3.97;;;10.30;99.90;;;;;;4862330;29;20060;-92
2022/01/03 06:10:50;;;;;;;25.07;4.40;;;9.50;99.90;;;;;;4845736;29;20498;-90
2022/01/03 06:13:19;;;;;;;23.30;4.67;;;8.80;99.90;;;;;;4846236;29;20072;-93
2022/01/03 06:15:48;;;;;;;23.73;4.57;;;9.00;99.90;;;;;;4845919;29;20462;-92
2022/01/03 06:18:18;;;;;;;22.57;4.23;;;8.60;99.90;;;;;;4846543;29;20053;-93
2022/01/03 06:20:51;;;;;;;23.60;4.13;;;8.70;99.90;;;;;;4846265;29;20139;-92
2022/01/03 06:23:20;;;;;;;;;;;8.50;99.90;;;;;;4846651;29;20136;-94
2022/01/03 06:25:53;;;;;;;21.53;4.97;;;8.80;99.90;;;;;;4846371;29;20011;-94
2022/01/03 06:28:21;;;;;;;22.30;4.20;;;8.90;99.90;;;;;;4846254;29;20068;-94
2022/01/03 06:30:52;;;;;;;23.00;4.23;;;9.60;99.90;;;;;;4845767;29;20082;-93
2022/01/03 06:33:21;;;;;;;24.37;4.07;;;9.10;99.90;;;;;;4846251;29;20049;-93
2022/01/03 06:35:53;;;;;;;22.30;4.63;;;8.50;99.90;;;;;;4845301;29;20054;-93
2022/01/03 06:38:22;;;;;;;26.47;4.73;;;8.80;99.90;;;;;;4845659;29;20045;-92
2022/01/03 06:40:54;;;;;;;28.70;4.50;;;8.60;99.90;;;;;;4845937;29;20053;-95
2022/01/03 06:43:25;;;;;;;28.33;4.93;;;8.50;99.90;;;;;;4846468;29;20051;-93
2022/01/03 06:45:54;;;;;;;22.57;4.43;;;8.70;99.90;;;;;;4846153;29;20056;-94
2022/01/03 06:48:25;;;;;;;27.43;4.70;;;9.20;99.90;;;;;;4846626;29;20067;-94
2022/01/03 06:50:57;;;;;;;23.30;5.50;;;9.10;99.90;;;;;;4845282;29;20398;-94
2022/01/03 06:53:28;;;;;;;23.77;4.47;;;9.50;99.90;;;;;;4846333;29;20076;-94
2022/01/03 06:55:59;;;;;;;25.13;5.23;;;10.30;99.90;;;;;;4845576;29;20053;-94
2022/01/03 06:58:28;;;;;;;30.87;4.80;;;9.00;99.90;;;;;;4845574;29;20068;-93
2022/01/03 07:01:01;;;;;;;26.73;4.50;;;8.60;99.90;;;;;;4845451;29;20118;-93
2022/01/03 07:03:29;;;;;;;24.27;4.50;;;8.10;99.90;;;;;;4845647;29;20056;-95
2022/01/03 07:06:01;;;;;;;20.87;4.27;;;8.50;99.90;;;;;;4844778;29;20092;-94
2022/01/03 07:08:32;;;;;;;23.37;4.23;;;10.00;99.90;;;;;;4845214;29;20113;-93
2022/01/03 07:11:07;;;;;;;29.50;4.73;;;8.60;99.90;;;;;;4844148;29;20136;-94
2022/01/03 07:13:46;;;;;;;29.57;5.10;;;8.90;99.90;;;;;;4845769;29;20060;-94
2022/01/03 07:19:45;;;;;;;24.67;4.33;;;9.50;99.90;;;;;;4850180;29;20037;-93
2022/01/03 07:22:14;;;;;;;19.00;4.10;;;8.70;99.90;;;;;;4867375;29;20041;-94
2022/01/03 07:24:47;;;;;;;23.33;4.53;;;8.80;99.90;;;;;;4852188;29;20833;-93
2022/01/03 07:27:15;;;;;;;26.08;5.47;;;9.00;99.90;;;;;;4844899;29;20049;-93
2022/01/03 07:29:48;;;;;;;25.13;4.77;;;8.90;99.90;;;;;;4844700;29;20045;-96
2022/01/03 07:32:14;;;;;;;26.30;5.27;;;8.40;99.90;;;;;;4845767;29;20554;-93
2022/01/03 07:34:43;;;;;;;26.80;4.77;;;8.90;99.90;;;;;;4844646;29;20052;-93
2022/01/03 07:37:12;;;;;;;21.97;4.73;;;9.30;99.90;;;;;;4845143;29;20128;-94
2022/01/03 07:39:40;;;;;;;28.80;5.37;;;9.10;99.90;;;;;;4844606;29;20041;-92
2022/01/03 07:42:12;;;;;;;32.60;11.23;;;8.90;99.90;;;;;;4844340;29;20045;-94
2022/01/03 07:44:47;;;;;;;33.70;11.90;;;9.70;99.90;;;;;;4846642;29;20072;-96
2022/01/03 07:47:19;;;;;;;21.90;5.10;;;8.90;99.90;;;;;;4846727;29;20049;-96
2022/01/03 07:49:50;;;;;;;24.60;5.80;;;9.00;99.90;;;;;;4849432;29;20098;-95
2022/01/03 07:52:19;;;;;;;29.60;7.20;;;10.40;99.90;;;;;;4867822;29;20029;-96
2022/01/03 07:54:52;;;;;;;20.77;4.73;;;10.30;99.90;;;;;;4854484;29;20136;-91
2022/01/03 07:57:18;;;;;;;31.38;5.50;;;9.60;99.90;;;;;;4850231;29;20529;-95
2022/01/03 07:59:47;;;;;;;23.43;6.40;;;9.30;99.90;;;;;;4866295;29;20050;-95
2022/01/03 08:02:16;;;;;;;24.23;5.43;;;9.20;99.90;;;;;;4849465;29;20136;-95
2022/01/03 08:04:48;;;;;;;31.67;5.93;;;9.10;99.90;;;;;;4846627;29;20422;-93
2022/01/03 08:08:20;;;;;;;26.67;7.70;;;9.40;99.90;;;;;;4847595;29;20057;-94
2022/01/03 08:11:18;;;;;;;28.93;7.07;;;8.60;99.90;;;;;;4845930;29;20641;-93
2022/01/03 08:13:52;;;;;;;23.53;6.13;;;9.40;99.90;;;;;;4846442;29;20057;-94
2022/01/03 08:16:21;;;;;;;;;;;9.80;99.90;;;;;;4849164;29;20459;-95
2022/01/03 08:18:56;;;;;;;27.07;7.67;;;9.30;99.90;;;;;;4845635;29;19924;-95
2022/01/03 08:21:27;;;;;;;26.03;7.43;;;9.40;99.90;;;;;;4847034;29;20159;-95
2022/01/03 08:23:58;;;;;;;28.67;7.73;;;10.00;99.90;;;;;;4846397;29;20055;-93
2022/01/03 08:26:33;;;;;;;26.60;5.63;;;8.80;99.90;;;;;;4846309;29;20053;-92
2022/01/03 08:28:59;;;;;;;26.73;7.10;;;9.30;99.90;;;;;;4843647;29;20136;-94
2022/01/03 08:31:25;;;;;;;31.27;11.00;;;9.90;99.90;;;;;;4883584;23;20087;-91
2022/01/03 08:33:53;;;;;;;20.80;5.13;;;9.50;99.90;;;;;;4893044;29;20056;-89
2022/01/03 08:36:19;;;;;;;26.40;9.50;;;9.50;99.90;;;;;;4893542;29;20095;-91
2022/01/03 08:38:45;;;;;;;27.17;12.17;;;9.40;99.90;;;;;;4898752;29;20056;-91
2022/01/03 08:41:11;;;;;;;31.60;9.20;;;9.40;99.90;;;;;;4899447;29;20503;-91
2022/01/03 08:43:39;;;;;;;31.77;10.47;;;9.40;99.90;;;;;;4898494;29;20079;-91
2022/01/03 08:46:05;;;;;;;29.97;9.90;;;9.60;99.90;;;;;;4899312;29;20059;-90
2022/01/03 08:48:31;;;;;;;42.10;15.03;;;9.60;99.90;;;;;;4899502;29;20048;-90
2022/01/03 08:50:57;;;;;;;23.17;5.67;;;10.00;99.90;;;;;;4898557;29;20086;-91
2022/01/03 08:53:26;;;;;;;28.97;9.60;;;9.80;99.90;;;;;;4915011;29;20041;-91
2022/01/03 08:56:06;;;;;;;24.13;5.60;;;10.10;99.90;;;;;;4901150;29;20048;-91
2022/01/03 08:58:32;;;;;;;25.40;6.97;;;9.60;99.90;;;;;;4902897;29;20382;-91
2022/01/03 09:00:59;;;;;;;26.47;7.77;;;9.50;99.90;;;;;;4902347;29;20044;-91
2022/01/03 09:03:24;;;;;;;24.10;6.83;;;10.00;99.90;;;;;;4902243;29;20060;-91
2022/01/03 09:05:51;;;;;;;26.10;6.50;;;9.50;99.90;;;;;;4902824;29;20040;-91
2022/01/03 09:08:18;;;;;;;20.03;4.43;;;9.60;99.90;;;;;;4902900;29;20043;-90
2022/01/03 09:10:47;;;;;;;22.80;6.73;;;10.50;99.90;;;;;;4901556;29;20487;-92
2022/01/03 09:13:22;;;;;;;20.53;5.40;;;9.50;99.90;;;;;;4902868;29;20063;-89
2022/01/03 09:15:49;;;;;;;19.17;5.60;;;9.50;99.90;;;;;;4902099;29;20440;-90
2022/01/03 09:18:22;;;;;;;26.90;7.07;;;10.00;99.90;;;;;;4901957;29;20407;-89
2022/01/03 09:20:53;;;;;;;23.90;6.27;;;9.60;99.90;;;;;;4918993;29;20075;-89
2022/01/03 09:23:27;;;;;;;20.30;5.28;;;9.70;99.90;;;;;;4902183;29;20048;-90
2022/01/03 09:28:51;;;;;;;19.48;5.00;;;9.80;99.90;;;;;;4933794;29;20374;-91
2022/01/03 09:31:26;;;;;;;22.73;5.50;;;9.80;99.90;;;;;;4901471;29;20055;-89
2022/01/03 09:33:54;;;;;;;22.53;5.20;;;9.90;99.90;;;;;;4902132;29;20059;-90
2022/01/03 09:36:20;;;;;;;23.87;5.13;;;9.90;99.90;;;;;;4902461;29;20076;-85
2022/01/03 09:38:49;;;;;;;15.73;4.37;;;9.90;99.90;;;;;;4918814;29;20044;-95
2022/01/03 09:41:21;;;;;;;22.47;5.40;;;9.40;99.90;;;;;;4917034;29;20036;-89
2022/01/03 09:44:03;;;;;;;23.10;5.00;;;9.90;99.90;;;;;;4916430;29;20461;-93
2022/01/03 09:46:37;;;;;;;32.20;6.83;;;9.90;99.90;;;;;;4912829;29;20044;-94
2022/01/03 09:49:11;;;;;;;19.60;5.30;;;9.90;99.90;;;;;;4906564;29;20040;-95
2022/01/03 09:51:37;;;;;;;;;;;9.80;99.90;;;;;;4903961;29;20136;-92
2022/01/03 09:54:11;;;;;;;27.47;7.27;;;10.30;99.90;;;;;;4901215;29;20014;-95
2022/01/03 09:56:38;;;;;;;17.20;4.68;;;10.40;99.90;;;;;;4904198;29;20040;-96
2022/01/03 09:59:10;;;;;;;22.50;4.67;;;9.70;99.90;;;;;;4909365;29;20488;-96
2022/01/03 10:01:40;;;;;;;19.80;3.83;;;9.90;99.90;;;;;;4907302;29;20060;-95
2022/01/03 10:04:06;;;;;;;21.37;4.07;;;9.90;99.90;;;;;;4904760;29;20055;-95
2022/01/03 10:06:38;;;;;;;23.07;4.70;;;8.50;99.90;;;;;;4908472;29;20048;-95
2022/01/03 10:09:04;;;;;;;18.63;4.33;;;9.90;99.90;;;;;;4898278;23;20060;-95
2022/01/03 10:11:44;;;;;;;18.77;4.23;;;9.90;99.90;;;;;;4892797;23;20139;-94
2022/01/03 10:17:10;;;;;;;24.70;4.13;;;9.60;99.90;;;;;;4871224;29;20048;-90
2022/01/03 10:20:14;;;;;;;20.93;3.53;;;10.10;99.90;;;;;;4883515;29;20441;-93
2022/01/03 10:22:46;;;;;;;21.30;4.20;;;10.70;99.90;;;;;;4882953;29;20484;-93
2022/01/03 10:25:21;;;;;;;20.87;3.97;;;10.00;99.90;;;;;;4906192;29;20058;-91
2022/01/03 10:27:54;;;;;;;19.73;4.00;;;10.00;99.90;;;;;;4887204;29;20044;-93
2022/01/03 10:30:49;;;;;;;19.83;3.83;;;10.10;99.90;;;;;;4883150;29;20044;-91
2022/01/03 10:33:21;;;;;;;24.73;4.40;;;10.30;99.90;;;;;;4883677;29;20308;-93
2022/01/03 10:35:56;;;;;;;21.70;4.43;;;10.50;99.90;;;;;;4878034;29;20080;-92
2022/01/03 10:38:50;;;;;;;19.70;4.10;;;9.90;99.90;;;;;;4864704;29;20052;-93
2022/01/03 10:41:24;;;;;;;19.40;4.07;;;10.20;99.90;;;;;;4865026;29;20041;-91
2022/01/03 10:43:56;;;;;;;21.50;4.23;;;10.00;99.90;;;;;;4865177;29;20446;-92
2022/01/03 10:46:29;;;;;;;20.30;4.07;;;11.10;99.90;;;;;;4869663;23;20105;-92
2022/01/03 10:49:26;;;;;;;21.17;4.30;;;10.20;99.90;;;;;;4861909;29;20053;-91
2022/01/03 10:51:52;;;;;;;16.53;3.70;;;9.40;99.90;;;;;;4878892;29;20136;-89
2022/01/03 10:54:32;;;;;;;15.38;3.83;;;10.80;99.90;;;;;;4863587;29;20072;-90
2022/01/03 10:57:04;;;;;;;22.83;4.03;;;9.80;99.90;;;;;;4862916;29;20056;-90
2022/01/03 10:59:39;;;;;;;15.77;3.40;;;11.10;99.90;;;;;;4863999;29;20053;-90
2022/01/03 11:02:06;;;;;;;22.80;4.13;;;10.40;99.90;;;;;;4863252;29;20072;-88
2022/01/03 11:04:50;;;;;;;18.38;3.85;;;10.00;99.90;;;;;;4863390;29;20044;-90
2022/01/03 11:13:14;;;;;;;23.57;6.03;;;10.20;99.90;;;;;;4863470;29;20056;-90
2022/01/03 11:15:50;;;;;;;27.80;7.33;;;10.00;99.90;;;;;;4862560;29;20056;-90
2022/01/03 11:18:47;;;;;;;24.48;5.82;;;10.70;99.90;;;;;;4836663;29;20064;-91
2022/01/03 11:21:23;;;;;;;23.57;4.63;;;11.10;99.90;;;;;;4862852;29;20398;-90
2022/01/03 11:25:06;;;;;;;18.60;5.20;;;10.10;99.90;;;;;;4862856;29;20108;-92
2022/01/03 11:27:40;;;;;;;23.10;6.67;;;10.40;99.90;;;;;;4753963;30;20489;-93
2022/01/03 11:30:12;;;;;;;21.63;5.10;;;10.10;99.90;;;;;;4755299;30;20060;-92
2022/01/03 11:32:43;;;;;;;20.30;5.63;;;10.10;99.90;;;;;;4806535;29;20062;-94
2022/01/03 11:35:11;;;;;;;20.37;4.33;;;10.20;99.90;;;;;;4851390;29;20077;-92
2022/01/03 11:37:41;;;;;;;25.60;4.97;;;10.20;99.90;;;;;;4871284;29;20108;-91
2022/01/03 11:40:53;;;;;;;21.05;5.10;;;10.30;99.90;;;;;;4863739;29;20060;-92
2022/01/03 11:43:23;;;;;;;22.83;4.88;;;9.90;99.90;;;;;;4849952;29;20060;-95
2022/01/03 11:45:54;;;;;;;25.57;5.70;;;10.90;99.90;;;;;;4863291;29;20446;-92
2022/01/03 11:48:24;;;;;;;19.80;5.30;;;11.90;99.90;;;;;;4863478;29;20045;-92
2022/01/03 11:50:55;;;;;;;22.73;6.60;;;9.80;99.90;;;;;;4863251;29;20049;-94
2022/01/03 11:53:24;;;;;;;21.93;5.50;;;10.20;99.90;;;;;;4878470;29;20060;-91
2022/01/03 11:55:59;;;;;;;19.80;4.40;;;9.80;99.90;;;;;;4876997;29;20057;-91
2022/01/03 12:05:26;;;;;;;20.80;4.18;;;10.80;99.90;;;;;;4863120;29;20503;-92
2022/01/03 12:07:58;;;;;;;20.43;4.93;;;10.40;99.90;;;;;;4862543;29;20137;-93
2022/01/03 12:10:27;;;;;;;22.03;4.77;;;11.40;99.90;;;;;;4862875;29;20049;-92
2022/01/03 12:12:59;;;;;;;25.30;5.43;;;10.80;99.90;;;;;;4862707;29;20049;-93
2022/01/03 12:15:36;;;;;;;19.77;4.20;;;10.80;99.90;;;;;;4878610;29;20515;-92
2022/01/03 12:18:01;;;;;;;20.67;4.20;;;11.50;99.90;;;;;;4863710;29;20060;-93
2022/01/03 12:21:03;;;;;;;20.67;5.53;;;10.60;99.90;;;;;;4862372;29;20405;-92
2022/01/03 12:24:02;;;;;;;43.77;31.07;;;9.90;99.90;;;;;;4863277;29;20481;-93
2022/01/03 12:26:34;;;;;;;17.63;3.63;;;10.60;99.90;;;;;;4854446;29;20061;-91
2022/01/03 12:29:02;;;;;;;20.53;5.10;;;10.90;99.90;;;;;;4865755;29;20057;-91
2022/01/03 12:32:02;;;;;;;21.13;3.97;;;10.40;99.90;;;;;;4866569;29;20049;-91
2022/01/03 12:34:31;;;;;;;18.77;4.20;;;10.60;99.90;;;;;;4866165;29;20049;-90
2022/01/03 12:41:05;;;;;;;15.47;3.43;;;10.70;99.90;;;;;;4792034;29;20099;-91
2022/01/03 12:43:44;;;;;;;21.27;4.40;;;11.10;99.90;;;;;;4807263;29;20058;-92
2022/01/03 12:46:34;;;;;;;16.43;3.87;;;10.80;99.90;;;;;;4865462;29;20405;-91
2022/01/03 12:49:37;;;;;;;19.20;4.10;;;10.80;99.90;;;;;;4865200;29;20139;-93
2022/01/03 12:52:16;;;;;;;16.63;3.70;;;10.80;99.90;;;;;;4866339;29;20094;-92
2022/01/03 12:54:43;;;;;;;19.67;4.03;;;10.80;99.90;;;;;;4866134;29;20493;-91
2022/01/03 12:57:13;;;;;;;16.63;3.60;;;12.10;99.90;;;;;;4865434;29;20041;-90
2022/01/03 12:59:39;;;;;;;20.35;3.88;;;11.10;99.90;;;;;;4866002;29;20108;-91
2022/01/03 13:02:35;;;;;;;18.95;4.32;;;11.90;99.90;;;;;;4866634;29;20132;-95
2022/01/03 13:05:13;;;;;;;18.43;4.53;;;11.30;99.90;;;;;;4867444;29;20053;-95
2022/01/03 13:07:46;;;;;;;18.92;4.57;;;11.10;99.90;;;;;;4867133;29;20045;-95
2022/01/03 13:10:17;;;;;;;20.73;4.28;;;11.10;99.90;;;;;;4885856;23;20053;-94
2022/01/03 13:12:45;;;;;;;21.73;4.43;;;11.30;99.90;;;;;;4885668;29;20120;-94
2022/01/03 13:15:20;;;;;;;21.10;4.07;;;10.10;99.90;;;;;;4885100;29;20075;-95
2022/01/03 13:17:45;;;;;;;27.83;4.65;;;10.50;99.90;;;;;;4884380;29;20044;-95
2022/01/03 13:20:16;;;;;;;23.58;4.47;;;10.40;99.90;;;;;;4884891;29;20051;-94
2022/01/03 13:22:50;;;;;;;19.90;4.30;;;10.70;99.90;;;;;;4884305;29;20072;-96
2022/01/03 13:25:19;;;;;;;23.40;4.55;;;10.70;99.90;;;;;;4885021;29;20190;-94
2022/01/03 13:27:45;;;;;;;19.93;4.23;;;10.40;99.90;;;;;;4907383;29;20044;-95
2022/01/03 13:30:14;;;;;;;20.20;4.37;;;10.40;99.90;;;;;;4905236;29;20056;-95
2022/01/03 13:32:45;;;;;;;17.87;4.00;;;10.40;99.90;;;;;;4890893;29;20040;-94
2022/01/03 13:35:11;;;;;;;19.40;4.27;;;11.10;99.90;;;;;;4885160;29;20052;-95
2022/01/03 13:37:40;;;;;;;19.07;4.30;;;10.30;99.90;;;;;;4884369;29;20131;-95
2022/01/03 13:40:14;;;;;;;18.30;4.10;;;10.30;99.90;;;;;;4884024;29;20128;-94
2022/01/03 13:43:01;;;;;;;17.17;4.47;;;10.30;99.90;;;;;;4884072;29;20492;-93
2022/01/03 13:51:26;;;;;;;20.80;5.40;;;10.40;99.90;;;;;;4883454;29;20131;-93
2022/01/03 13:53:58;;;;;;;20.13;3.60;;;11.20;99.90;;;;;;4896498;23;20053;-94
2022/01/03 14:00:19;;;;;;;16.27;3.57;;;10.60;99.90;;;;;;4907455;23;20048;-93
2022/01/03 14:02:48;;;;;;;21.03;4.50;;;10.50;99.90;;;;;;4882899;29;20511;-94